sensor_id;sensor_type;location;lat;lon;timestamp;pressure;altitude;pressure_sealevel;temperature;humidity
51359;BME280;37448;51.588;7.248;2023-02-19T00:00:04;101078.78;;;8.57;100.00
51359;BME280;37448;51.588;7.248;2023-02-19T00:02:13;101075.31;;;8.58;100.00
51359;BME280;37448;51.588;7.248;2023-02-19T00:04:15;101084.84;;;8.59;100.00
51359;BME280;37448;51.588;7.248;2023-02-19T00:06:15;101077.91;;;8.58;100.00
51359;BME280;37448;51.588;7.248;2023-02-19T00:08:16;101087.44;;;8.59;100.00
51359;BME280;37448;51.588;7.248;2023-02-19T00:10:16;101076.16;;;8.59;100.00
51359;BME280;37448;51.588;7.248;2023-02-19T00:12:16;101086.56;;;8.60;100.00
51359;BME280;37448;51.588;7.248;2023-02-19T00:14:19;101090.06;;;8.59;100.00
51359;BME280;37448;51.588;7.248;2023-02-19T00:18:22;101087.44;;;8.59;100.00
51359;BME280;37448;51.588;7.248;2023-02-19T00:20:23;101087.44;;;8.59;100.00
51359;BME280;37448;51.588;7.248;2023-02-19T00:22:23;101093.50;;;8.61;100.00
51359;BME280;37448;51.588;7.248;2023-02-19T00:24:24;101092.63;;;8.61;100.00
51359;BME280;37448;51.588;7.248;2023-02-19T00:26:24;101084.81;;;8.63;100.00
51359;BME280;37448;51.588;7.248;2023-02-19T00:28:25;101075.28;;;8.61;100.00
51359;BME280;37448;51.588;7.248;2023-02-19T00:30:25;101077.88;;;8.60;100.00
51359;BME280;37448;51.588;7.248;2023-02-19T00:32:25;101075.28;;;8.61;100.00
51359;BME280;37448;51.588;7.248;2023-02-19T00:34:26;101072.69;;;8.61;100.00
51359;BME280;37448;51.588;7.248;2023-02-19T00:36:27;101073.53;;;8.62;100.00
51359;BME280;37448;51.588;7.248;2023-02-19T00:38:28;101060.53;;;8.60;100.00
51359;BME280;37448;51.588;7.248;2023-02-19T00:40:28;101057.94;;;8.60;100.00
51359;BME280;37448;51.588;7.248;2023-02-19T00:42:29;101064.88;;;8.61;100.00
51359;BME280;37448;51.588;7.248;2023-02-19T00:44:29;101064.88;;;8.61;100.00
51359;BME280;37448;51.588;7.248;2023-02-19T00:46:41;101054.44;;;8.61;100.00
51359;BME280;37448;51.588;7.248;2023-02-19T00:48:42;101054.44;;;8.61;100.00
51359;BME280;37448;51.588;7.248;2023-02-19T00:50:43;101057.94;;;8.60;100.00
51359;BME280;37448;51.588;7.248;2023-02-19T00:52:43;101063.13;;;8.60;100.00
51359;BME280;37448;51.588;7.248;2023-02-19T00:54:44;101066.59;;;8.61;100.00
51359;BME280;37448;51.588;7.248;2023-02-19T00:56:45;101054.44;;;8.61;100.00
51359;BME280;37448;51.588;7.248;2023-02-19T00:58:47;101064.88;;;8.61;100.00
51359;BME280;37448;51.588;7.248;2023-02-19T01:00:47;101066.59;;;8.63;100.00
51359;BME280;37448;51.588;7.248;2023-02-19T01:02:47;101059.66;;;8.61;100.00
51359;BME280;37448;51.588;7.248;2023-02-19T01:04:48;101061.41;;;8.59;100.00
51359;BME280;37448;51.588;7.248;2023-02-19T01:06:48;101063.13;;;8.60;100.00
51359;BME280;37448;51.588;7.248;2023-02-19T01:08:48;101051.00;;;8.59;100.00
51359;BME280;37448;51.588;7.248;2023-02-19T01:10:49;101054.44;;;8.60;100.00
51359;BME280;37448;51.588;7.248;2023-02-19T01:12:50;101059.69;;;8.58;100.00
51359;BME280;37448;51.588;7.248;2023-02-19T01:14:50;101056.22;;;8.59;100.00
51359;BME280;37448;51.588;7.248;2023-02-19T01:16:50;101054.47;;;8.58;100.00
51359;BME280;37448;51.588;7.248;2023-02-19T01:18:51;101066.63;;;8.59;100.00
51359;BME280;37448;51.588;7.248;2023-02-19T01:20:51;101062.28;;;8.58;100.00
51359;BME280;37448;51.588;7.248;2023-02-19T01:22:52;101064.00;;;8.59;100.00
51359;BME280;37448;51.588;7.248;2023-02-19T01:24:52;101060.53;;;8.59;100.00
51359;BME280;37448;51.588;7.248;2023-02-19T01:26:53;101051.00;;;8.58;100.00
51359;BME280;37448;51.588;7.248;2023-02-19T01:28:53;101063.13;;;8.60;100.00
51359;BME280;37448;51.588;7.248;2023-02-19T01:30:54;101051.88;;;8.58;100.00
51359;BME280;37448;51.588;7.248;2023-02-19T01:32:54;101051.00;;;8.59;100.00
51359;BME280;37448;51.588;7.248;2023-02-19T01:34:54;101048.38;;;8.59;100.00
51359;BME280;37448;51.588;7.248;2023-02-19T01:36:55;101045.78;;;8.59;100.00
51359;BME280;37448;51.588;7.248;2023-02-19T01:38:58;101041.44;;;8.60;100.00
51359;BME280;37448;51.588;7.248;2023-02-19T01:41:05;101044.91;;;8.59;100.00
51359;BME280;37448;51.588;7.248;2023-02-19T01:43:14;101049.28;;;8.58;100.00
51359;BME280;37448;51.588;7.248;2023-02-19T01:47:23;101057.06;;;8.57;100.00
51359;BME280;37448;51.588;7.248;2023-02-19T01:49:27;101049.25;;;8.55;100.00
51359;BME280;37448;51.588;7.248;2023-02-19T01:51:29;101050.13;;;8.54;100.00
51359;BME280;37448;51.588;7.248;2023-02-19T01:53:36;101049.25;;;8.55;100.00
51359;BME280;37448;51.588;7.248;2023-02-19T01:55:39;101051.88;;;8.55;100.00
51359;BME280;37448;51.588;7.248;2023-02-19T01:57:45;101049.28;;;8.52;100.00
51359;BME280;37448;51.588;7.248;2023-02-19T01:59:54;101051.03;;;8.50;100.00
51359;BME280;37448;51.588;7.248;2023-02-19T02:01:57;101058.81;;;8.53;100.00
51359;BME280;37448;51.588;7.248;2023-02-19T02:03:58;101056.22;;;8.53;100.00
51359;BME280;37448;51.588;7.248;2023-02-19T02:06:20;101059.69;;;8.52;100.00
51359;BME280;37448;51.588;7.248;2023-02-19T02:08:22;101064.94;;;8.51;100.00
51359;BME280;37448;51.588;7.248;2023-02-19T02:10:43;101064.94;;;8.51;100.00
51359;BME280;37448;51.588;7.248;2023-02-19T02:12:43;101065.81;;;8.50;100.00
51359;BME280;37448;51.588;7.248;2023-02-19T02:14:45;101064.91;;;8.49;100.00
51359;BME280;37448;51.588;7.248;2023-02-19T02:16:55;101066.66;;;8.50;100.00
51359;BME280;37448;51.588;7.248;2023-02-19T02:19:04;101069.25;;;8.50;100.00
51359;BME280;37448;51.588;7.248;2023-02-19T02:24:11;101068.38;;;8.48;100.00
51359;BME280;37448;51.588;7.248;2023-02-19T02:26:46;101067.53;;;8.47;100.00
51359;BME280;37448;51.588;7.248;2023-02-19T02:29:20;101077.06;;;8.47;100.00
51359;BME280;37448;51.588;7.248;2023-02-19T02:36:00;101064.06;;;8.44;100.00
51359;BME280;37448;51.588;7.248;2023-02-19T02:38:06;101071.88;;;8.44;100.00
51359;BME280;37448;51.588;7.248;2023-02-19T02:40:08;101072.75;;;8.41;100.00
51359;BME280;37448;51.588;7.248;2023-02-19T02:42:09;101066.69;;;8.41;100.00
51359;BME280;37448;51.588;7.248;2023-02-19T02:44:40;101072.75;;;8.41;100.00
51359;BME280;37448;51.588;7.248;2023-02-19T02:46:43;101071.91;;;8.41;100.00
51359;BME280;37448;51.588;7.248;2023-02-19T02:48:47;101070.16;;;8.40;100.00
51359;BME280;37448;51.588;7.248;2023-02-19T02:51:12;101073.63;;;8.39;100.00
51359;BME280;37448;51.588;7.248;2023-02-19T02:53:47;101066.72;;;8.35;100.00
51359;BME280;37448;51.588;7.248;2023-02-19T02:56:09;101069.31;;;8.36;100.00
51359;BME280;37448;51.588;7.248;2023-02-19T02:58:12;101064.97;;;8.37;100.00
51359;BME280;37448;51.588;7.248;2023-02-19T03:00:14;101073.66;;;8.36;100.00
51359;BME280;37448;51.588;7.248;2023-02-19T03:02:27;101071.94;;;8.35;100.00
51359;BME280;37448;51.588;7.248;2023-02-19T03:04:34;101074.53;;;8.31;100.00
51359;BME280;37448;51.588;7.248;2023-02-19T03:06:37;101067.63;;;8.29;100.00
51359;BME280;37448;51.588;7.248;2023-02-19T03:08:45;101071.94;;;8.28;100.00
51359;BME280;37448;51.588;7.248;2023-02-19T03:11:08;101071.94;;;8.31;100.00
51359;BME280;37448;51.588;7.248;2023-02-19T03:13:32;101075.41;;;8.30;100.00
51359;BME280;37448;51.588;7.248;2023-02-19T03:15:58;101075.41;;;8.30;100.00
51359;BME280;37448;51.588;7.248;2023-02-19T03:18:20;101074.56;;;8.27;100.00
51359;BME280;37448;51.588;7.248;2023-02-19T03:20:43;101082.38;;;8.27;100.00
51359;BME280;37448;51.588;7.248;2023-02-19T03:22:45;101085.81;;;8.27;100.00
51359;BME280;37448;51.588;7.248;2023-02-19T03:24:52;101084.09;;;8.28;100.00
51359;BME280;37448;51.588;7.248;2023-02-19T03:27:13;101084.09;;;8.28;100.00
51359;BME280;37448;51.588;7.248;2023-02-19T03:29:20;101090.19;;;8.27;100.00
51359;BME280;37448;51.588;7.248;2023-02-19T03:31:29;101097.97;;;8.25;100.00
51359;BME280;37448;51.588;7.248;2023-02-19T03:33:33;101091.06;;;8.24;100.00
51359;BME280;37448;51.588;7.248;2023-02-19T03:35:44;101087.59;;;8.22;100.00
51359;BME280;37448;51.588;7.248;2023-02-19T03:37:56;101107.53;;;8.25;100.00
51359;BME280;37448;51.588;7.248;2023-02-19T03:39:58;101100.59;;;8.24;99.79
51359;BME280;37448;51.588;7.248;2023-02-19T03:42:05;101096.28;;;8.21;100.00
51359;BME280;37448;51.588;7.248;2023-02-19T03:44:14;101105.81;;;8.21;99.92
51359;BME280;37448;51.588;7.248;2023-02-19T03:46:53;101114.50;;;8.18;99.54
51359;BME280;37448;51.588;7.248;2023-02-19T03:49:00;101113.63;;;8.17;99.67
51359;BME280;37448;51.588;7.248;2023-02-19T03:51:17;101117.97;;;8.17;99.71
51359;BME280;37448;51.588;7.248;2023-02-19T03:57:57;101122.31;;;8.13;99.50
51359;BME280;37448;51.588;7.248;2023-02-19T04:00:20;101124.09;;;8.10;99.11
51359;BME280;37448;51.588;7.248;2023-02-19T04:02:53;101132.75;;;8.09;99.14
51359;BME280;37448;51.588;7.248;2023-02-19T04:05:00;101126.66;;;8.08;99.40
51359;BME280;37448;51.588;7.248;2023-02-19T04:07:03;101131.88;;;8.05;99.68
51359;BME280;37448;51.588;7.248;2023-02-19T04:09:10;101136.22;;;8.06;99.52
51359;BME280;37448;51.588;7.248;2023-02-19T04:11:13;101137.94;;;8.05;99.14
51359;BME280;37448;51.588;7.248;2023-02-19T04:13:18;101141.41;;;8.04;99.56
51359;BME280;37448;51.588;7.248;2023-02-19T04:15:23;101138.81;;;8.04;99.81
51359;BME280;37448;51.588;7.248;2023-02-19T04:17:33;101154.41;;;8.04;99.46
51359;BME280;37448;51.588;7.248;2023-02-19T04:19:36;101152.69;;;8.05;99.81
51359;BME280;37448;51.588;7.248;2023-02-19T04:21:39;101159.63;;;8.01;99.76
51359;BME280;37448;51.588;7.248;2023-02-19T04:23:43;101166.56;;;8.07;99.66
51359;BME280;37448;51.588;7.248;2023-02-19T04:25:46;101164.84;;;8.06;99.86
51359;BME280;37448;51.588;7.248;2023-02-19T04:27:47;101161.38;;;8.01;99.90
51359;BME280;37448;51.588;7.248;2023-02-19T04:29:48;101167.44;;;8.04;100.00
51359;BME280;37448;51.588;7.248;2023-02-19T04:31:48;101161.38;;;8.02;100.00
51359;BME280;37448;51.588;7.248;2023-02-19T04:33:49;101170.91;;;8.00;99.38
51359;BME280;37448;51.588;7.248;2023-02-19T04:35:49;101160.50;;;8.02;99.47
51359;BME280;37448;51.588;7.248;2023-02-19T04:37:49;101172.63;;;8.01;99.26
51359;BME280;37448;51.588;7.248;2023-02-19T04:39:50;101176.09;;;8.00;99.49
51359;BME280;37448;51.588;7.248;2023-02-19T04:41:50;101171.78;;;7.99;99.75
51359;BME280;37448;51.588;7.248;2023-02-19T04:43:51;101172.66;;;7.98;99.37
51359;BME280;37448;51.588;7.248;2023-02-19T04:45:51;101173.53;;;7.99;99.07
51359;BME280;37448;51.588;7.248;2023-02-19T04:47:51;101176.13;;;7.97;99.36
51359;BME280;37448;51.588;7.248;2023-02-19T04:49:52;101177.84;;;7.98;99.08
51359;BME280;37448;51.588;7.248;2023-02-19T04:51:52;101183.91;;;8.00;99.41
51359;BME280;37448;51.588;7.248;2023-02-19T04:53:52;101186.50;;;8.00;99.32
51359;BME280;37448;51.588;7.248;2023-02-19T04:55:54;101183.91;;;8.00;99.42
51359;BME280;37448;51.588;7.248;2023-02-19T04:57:55;101189.97;;;8.02;99.12
51359;BME280;37448;51.588;7.248;2023-02-19T04:59:56;101185.66;;;8.00;99.73
51359;BME280;37448;51.588;7.248;2023-02-19T05:01:56;101191.72;;;8.00;98.78
51359;BME280;37448;51.588;7.248;2023-02-19T05:03:57;101196.91;;;8.00;99.53
51359;BME280;37448;51.588;7.248;2023-02-19T05:06:04;101197.78;;;7.99;99.27
51359;BME280;37448;51.588;7.248;2023-02-19T05:08:05;101201.28;;;7.97;99.85
51359;BME280;37448;51.588;7.248;2023-02-19T05:10:06;101200.41;;;7.96;99.11
51359;BME280;37448;51.588;7.248;2023-02-19T05:12:06;101193.47;;;7.95;99.26
51359;BME280;37448;51.588;7.248;2023-02-19T05:14:06;101192.59;;;7.93;99.30
51359;BME280;37448;51.588;7.248;2023-02-19T05:16:12;101203.88;;;7.89;99.27
51359;BME280;37448;51.588;7.248;2023-02-19T05:18:13;101203.88;;;7.89;99.19
51359;BME280;37448;51.588;7.248;2023-02-19T05:20:13;101222.06;;;7.90;99.65
51359;BME280;37448;51.588;7.248;2023-02-19T05:22:13;101227.28;;;7.90;99.72
51359;BME280;37448;51.588;7.248;2023-02-19T05:24:14;101216.03;;;7.90;99.75
51359;BME280;37448;51.588;7.248;2023-02-19T05:26:17;101226.44;;;7.90;99.64
51359;BME280;37448;51.588;7.248;2023-02-19T05:28:18;101231.63;;;7.87;99.29
51359;BME280;37448;51.588;7.248;2023-02-19T05:30:18;101238.56;;;7.88;99.13
51359;BME280;37448;51.588;7.248;2023-02-19T05:32:19;101233.38;;;7.88;99.44
51359;BME280;37448;51.588;7.248;2023-02-19T05:34:19;101234.25;;;7.84;98.93
51359;BME280;37448;51.588;7.248;2023-02-19T05:36:20;101243.78;;;7.85;99.32
51359;BME280;37448;51.588;7.248;2023-02-19T05:38:21;101243.78;;;7.85;99.37
51359;BME280;37448;51.588;7.248;2023-02-19T05:40:22;101239.41;;;7.85;99.39
51359;BME280;37448;51.588;7.248;2023-02-19T05:42:22;101239.41;;;7.85;98.71
51359;BME280;37448;51.588;7.248;2023-02-19T05:44:23;101240.31;;;7.86;98.96
51359;BME280;37448;51.588;7.248;2023-02-19T05:46:26;101248.09;;;7.87;99.31
51359;BME280;37448;51.588;7.248;2023-02-19T05:48:28;101247.25;;;7.84;99.32
51359;BME280;37448;51.588;7.248;2023-02-19T05:50:29;101252.44;;;7.87;98.78
51359;BME280;37448;51.588;7.248;2023-02-19T05:52:30;101259.38;;;7.88;99.51
51359;BME280;37448;51.588;7.248;2023-02-19T05:54:31;101247.22;;;7.87;99.25
51359;BME280;37448;51.588;7.248;2023-02-19T05:58:34;101268.88;;;7.87;99.00
51359;BME280;37448;51.588;7.248;2023-02-19T06:00:35;101255.03;;;7.87;99.47
51359;BME280;37448;51.588;7.248;2023-02-19T06:02:35;101259.38;;;7.85;99.08
51359;BME280;37448;51.588;7.248;2023-02-19T06:04:36;101260.22;;;7.85;98.83
51359;BME280;37448;51.588;7.248;2023-02-19T06:06:36;101267.16;;;7.83;99.20
51359;BME280;37448;51.588;7.248;2023-02-19T06:08:36;101274.97;;;7.83;99.07
51359;BME280;37448;51.588;7.248;2023-02-19T06:10:37;101279.31;;;7.86;99.55
51359;BME280;37448;51.588;7.248;2023-02-19T06:12:40;101276.72;;;7.86;99.33
51359;BME280;37448;51.588;7.248;2023-02-19T06:14:40;101261.97;;;7.83;99.03
51359;BME280;37448;51.588;7.248;2023-02-19T06:16:41;101264.56;;;7.80;99.11
51359;BME280;37448;51.588;7.248;2023-02-19T06:18:42;101275.81;;;7.81;98.71
51359;BME280;37448;51.588;7.248;2023-02-19T06:20:42;101268.03;;;7.79;98.85
51359;BME280;37448;51.588;7.248;2023-02-19T06:22:43;101278.41;;;7.81;99.29
51359;BME280;37448;51.588;7.248;2023-02-19T06:24:43;101274.97;;;7.77;99.12
51359;BME280;37448;51.588;7.248;2023-02-19T06:26:43;101286.22;;;7.78;99.08
51359;BME280;37448;51.588;7.248;2023-02-19T06:28:44;101279.28;;;7.76;99.31
51359;BME280;37448;51.588;7.248;2023-02-19T06:30:45;101280.16;;;7.75;98.76
51359;BME280;37448;51.588;7.248;2023-02-19T06:32:46;101294.91;;;7.78;99.29
51359;BME280;37448;51.588;7.248;2023-02-19T06:34:46;101292.28;;;7.76;99.08
51359;BME280;37448;51.588;7.248;2023-02-19T06:36:48;101281.03;;;7.76;99.51
51359;BME280;37448;51.588;7.248;2023-02-19T06:38:49;101291.41;;;7.78;99.12
51359;BME280;37448;51.588;7.248;2023-02-19T06:40:49;101295.75;;;7.79;99.43
51359;BME280;37448;51.588;7.248;2023-02-19T06:42:49;101302.69;;;7.80;99.48
51359;BME280;37448;51.588;7.248;2023-02-19T06:44:50;101300.09;;;7.78;99.71
51359;BME280;37448;51.588;7.248;2023-02-19T06:46:53;101302.69;;;7.80;99.42
51359;BME280;37448;51.588;7.248;2023-02-19T06:48:53;101304.41;;;7.78;99.92
51359;BME280;37448;51.588;7.248;2023-02-19T06:50:54;101315.69;;;7.76;99.38
51359;BME280;37448;51.588;7.248;2023-02-19T06:52:54;101313.97;;;7.75;99.12
51359;BME280;37448;51.588;7.248;2023-02-19T06:54:55;101326.97;;;7.79;98.84
51359;BME280;37448;51.588;7.248;2023-02-19T06:56:55;101326.97;;;7.79;99.33
51359;BME280;37448;51.588;7.248;2023-02-19T06:59:00;101336.50;;;7.80;99.12
51359;BME280;37448;51.588;7.248;2023-02-19T07:01:00;101327.84;;;7.79;99.46
51359;BME280;37448;51.588;7.248;2023-02-19T07:03:01;101339.09;;;7.80;98.86
51359;BME280;37448;51.588;7.248;2023-02-19T07:05:01;101336.50;;;7.78;99.06
51359;BME280;37448;51.588;7.248;2023-02-19T07:07:01;101346.03;;;7.81;99.24
51359;BME280;37448;51.588;7.248;2023-02-19T07:09:03;101352.09;;;7.80;98.84
51359;BME280;37448;51.588;7.248;2023-02-19T07:11:04;101354.69;;;7.80;99.00
51359;BME280;37448;51.588;7.248;2023-02-19T07:13:04;101362.50;;;7.78;98.95
51359;BME280;37448;51.588;7.248;2023-02-19T07:15:05;101364.22;;;7.78;99.40
51359;BME280;37448;51.588;7.248;2023-02-19T07:17:05;101373.75;;;7.79;99.41
51359;BME280;37448;51.588;7.248;2023-02-19T07:19:06;101378.97;;;7.79;99.09
51359;BME280;37448;51.588;7.248;2023-02-19T07:21:09;101374.66;;;7.76;99.59
51359;BME280;37448;51.588;7.248;2023-02-19T07:23:10;101373.75;;;7.75;99.06
51359;BME280;37448;51.588;7.248;2023-02-19T07:25:10;101378.09;;;7.76;98.87
51359;BME280;37448;51.588;7.248;2023-02-19T07:27:10;101378.97;;;7.75;99.04
51359;BME280;37448;51.588;7.248;2023-02-19T07:29:11;101389.34;;;7.72;99.30
51359;BME280;37448;51.588;7.248;2023-02-19T07:31:12;101387.63;;;7.71;99.68
51359;BME280;37448;51.588;7.248;2023-02-19T07:33:12;101393.69;;;7.70;99.92
51359;BME280;37448;51.588;7.248;2023-02-19T07:35:13;101402.34;;;7.69;99.51
51359;BME280;37448;51.588;7.248;2023-02-19T07:37:13;101402.34;;;7.68;99.67
51359;BME280;37448;51.588;7.248;2023-02-19T07:39:13;101399.75;;;7.69;99.50
51359;BME280;37448;51.588;7.248;2023-02-19T07:41:15;101404.06;;;7.69;99.77
51359;BME280;37448;51.588;7.248;2023-02-19T07:43:15;101414.47;;;7.69;99.38
51359;BME280;37448;51.588;7.248;2023-02-19T07:45:15;101416.22;;;7.68;99.62
51359;BME280;37448;51.588;7.248;2023-02-19T07:47:16;101417.09;;;7.67;99.58
51359;BME280;37448;51.588;7.248;2023-02-19T07:49:16;101413.63;;;7.68;100.00
51359;BME280;37448;51.588;7.248;2023-02-19T07:51:18;101411.88;;;7.67;100.00
51359;BME280;37448;51.588;7.248;2023-02-19T07:53:19;101414.47;;;7.69;100.00
51359;BME280;37448;51.588;7.248;2023-02-19T07:55:19;101416.22;;;7.68;100.00
51359;BME280;37448;51.588;7.248;2023-02-19T07:57:20;101424.88;;;7.70;100.00
51359;BME280;37448;51.588;7.248;2023-02-19T07:59:20;101429.22;;;7.71;100.00
51359;BME280;37448;51.588;7.248;2023-02-19T08:01:22;101425.75;;;7.69;100.00
51359;BME280;37448;51.588;7.248;2023-02-19T08:03:42;101439.63;;;7.68;100.00
51359;BME280;37448;51.588;7.248;2023-02-19T08:05:43;101439.59;;;7.65;99.75
51359;BME280;37448;51.588;7.248;2023-02-19T08:07:44;101450.00;;;7.65;99.50
51359;BME280;37448;51.588;7.248;2023-02-19T08:09:44;101446.53;;;7.63;99.96
51359;BME280;37448;51.588;7.248;2023-02-19T08:12:04;101456.94;;;7.69;100.00
51359;BME280;37448;51.588;7.248;2023-02-19T08:14:25;101462.16;;;7.72;100.00
51359;BME280;37448;51.588;7.248;2023-02-19T08:16:26;101460.44;;;7.74;100.00
51359;BME280;37448;51.588;7.248;2023-02-19T08:18:28;101452.63;;;7.71;99.87
51359;BME280;37448;51.588;7.248;2023-02-19T08:20:29;101462.16;;;7.79;100.00
51359;BME280;37448;51.588;7.248;2023-02-19T08:22:29;101462.19;;;7.80;100.00
51359;BME280;37448;51.588;7.248;2023-02-19T08:24:30;101458.75;;;7.86;99.82
51359;BME280;37448;51.588;7.248;2023-02-19T08:26:33;101456.13;;;7.87;99.72
51359;BME280;37448;51.588;7.248;2023-02-19T08:28:33;101456.16;;;7.89;99.81
51359;BME280;37448;51.588;7.248;2023-02-19T08:30:34;101455.28;;;7.99;99.76
51359;BME280;37448;51.588;7.248;2023-02-19T08:32:35;101462.22;;;8.00;99.92
51359;BME280;37448;51.588;7.248;2023-02-19T08:34:35;101467.44;;;8.00;99.19
51359;BME280;37448;51.588;7.248;2023-02-19T08:36:36;101464.84;;;7.99;99.64
51359;BME280;37448;51.588;7.248;2023-02-19T08:38:37;101471.78;;;7.97;98.78
51359;BME280;37448;51.588;7.248;2023-02-19T08:40:38;101470.91;;;7.96;98.71
51359;BME280;37448;51.588;7.248;2023-02-19T08:42:39;101465.69;;;7.93;97.85
51359;BME280;37448;51.588;7.248;2023-02-19T08:44:39;101471.78;;;7.97;98.26
51359;BME280;37448;51.588;7.248;2023-02-19T08:46:40;101473.53;;;7.98;98.25
51359;BME280;37448;51.588;7.248;2023-02-19T08:48:40;101484.78;;;7.97;98.54
51359;BME280;37448;51.588;7.248;2023-02-19T08:50:40;101476.09;;;7.96;98.39
51359;BME280;37448;51.588;7.248;2023-02-19T08:52:41;101479.56;;;7.98;98.38
51359;BME280;37448;51.588;7.248;2023-02-19T08:54:41;101477.84;;;7.97;98.18
51359;BME280;37448;51.588;7.248;2023-02-19T08:56:42;101476.09;;;7.99;98.81
51359;BME280;37448;51.588;7.248;2023-02-19T08:58:43;101490.00;;;8.04;99.17
51359;BME280;37448;51.588;7.248;2023-02-19T09:00:44;101489.13;;;8.02;99.19
51359;BME280;37448;51.588;7.248;2023-02-19T09:02:44;101494.34;;;8.04;98.81
51359;BME280;37448;51.588;7.248;2023-02-19T09:04:44;101486.50;;;8.02;98.51
51359;BME280;37448;51.588;7.248;2023-02-19T09:06:44;101503.00;;;8.06;98.65
51359;BME280;37448;51.588;7.248;2023-02-19T09:08:45;101505.59;;;8.04;98.68
51359;BME280;37448;51.588;7.248;2023-02-19T09:10:56;101509.06;;;8.03;99.53
51359;BME280;37448;51.588;7.248;2023-02-19T09:12:57;101515.16;;;8.04;99.21
51359;BME280;37448;51.588;7.248;2023-02-19T09:14:58;101517.75;;;8.01;99.76
51359;BME280;37448;51.588;7.248;2023-02-19T09:16:58;101513.38;;;7.98;99.44
51359;BME280;37448;51.588;7.248;2023-02-19T09:18:58;101517.72;;;7.99;99.58
51359;BME280;37448;51.588;7.248;2023-02-19T09:21:03;101521.19;;;7.95;99.97
51359;BME280;37448;51.588;7.248;2023-02-19T09:23:04;101531.59;;;7.98;99.70
51359;BME280;37448;51.588;7.248;2023-02-19T09:25:04;101535.06;;;7.94;99.35
51359;BME280;37448;51.588;7.248;2023-02-19T09:27:05;101533.31;;;7.95;99.19
51359;BME280;37448;51.588;7.248;2023-02-19T09:29:05;101537.69;;;7.99;99.37
51359;BME280;37448;51.588;7.248;2023-02-19T09:31:11;101547.19;;;7.98;99.80
51359;BME280;37448;51.588;7.248;2023-02-19T09:33:12;101545.47;;;7.97;99.31
51359;BME280;37448;51.588;7.248;2023-02-19T09:35:12;101545.47;;;7.97;99.56
51359;BME280;37448;51.588;7.248;2023-02-19T09:37:13;101552.41;;;7.98;99.64
51359;BME280;37448;51.588;7.248;2023-02-19T09:39:13;101547.19;;;7.98;99.52
51359;BME280;37448;51.588;7.248;2023-02-19T09:41:19;101548.06;;;8.00;99.71
51359;BME280;37448;51.588;7.248;2023-02-19T09:43:22;101551.56;;;8.02;100.00
51359;BME280;37448;51.588;7.248;2023-02-19T09:45:25;101544.63;;;8.00;99.14
51359;BME280;37448;51.588;7.248;2023-02-19T09:47:30;101552.41;;;7.98;99.60
51359;BME280;37448;51.588;7.248;2023-02-19T09:49:35;101560.22;;;7.98;99.25
51359;BME280;37448;51.588;7.248;2023-02-19T09:51:38;101556.75;;;7.98;99.05
51359;BME280;37448;51.588;7.248;2023-02-19T09:53:43;101568.03;;;8.03;99.06
51359;BME280;37448;51.588;7.248;2023-02-19T09:55:45;101576.69;;;7.97;98.78
51359;BME280;37448;51.588;7.248;2023-02-19T09:57:46;101575.84;;;8.00;98.56
51359;BME280;37448;51.588;7.248;2023-02-19T09:59:49;101586.22;;;7.97;98.19
51359;BME280;37448;51.588;7.248;2023-02-19T10:01:56;101592.28;;;7.97;98.45
51359;BME280;37448;51.588;7.248;2023-02-19T10:03:58;101598.38;;;7.98;98.28
51359;BME280;37448;51.588;7.248;2023-02-19T10:06:07;101607.91;;;7.97;98.50
51359;BME280;37448;51.588;7.248;2023-02-19T10:08:16;101616.59;;;8.04;98.29
51359;BME280;37448;51.588;7.248;2023-02-19T10:10:23;101626.16;;;8.08;98.63
51359;BME280;37448;51.588;7.248;2023-02-19T10:12:30;101626.16;;;8.08;98.99
51359;BME280;37448;51.588;7.248;2023-02-19T10:14:40;101633.97;;;8.10;99.22
51359;BME280;37448;51.588;7.248;2023-02-19T10:16:44;101639.19;;;8.10;98.91
51359;BME280;37448;51.588;7.248;2023-02-19T10:18:45;101640.00;;;8.02;97.47
51359;BME280;37448;51.588;7.248;2023-02-19T10:20:47;101633.09;;;8.06;97.40
51359;BME280;37448;51.588;7.248;2023-02-19T10:22:51;101625.25;;;8.01;97.52
51359;BME280;37448;51.588;7.248;2023-02-19T10:24:55;101637.41;;;8.02;97.60
51359;BME280;37448;51.588;7.248;2023-02-19T10:26:55;101641.72;;;8.00;97.28
51359;BME280;37448;51.588;7.248;2023-02-19T10:28:56;101650.44;;;8.04;97.12
51359;BME280;37448;51.588;7.248;2023-02-19T10:30:59;101658.22;;;8.02;96.73
51359;BME280;37448;51.588;7.248;2023-02-19T10:33:09;101661.66;;;8.01;96.24
51359;BME280;37448;51.588;7.248;2023-02-19T10:35:14;101659.97;;;8.07;97.37
51359;BME280;37448;51.588;7.248;2023-02-19T10:37:16;101650.41;;;8.05;97.30
51359;BME280;37448;51.588;7.248;2023-02-19T10:41:23;101664.28;;;8.01;96.74
51359;BME280;37448;51.588;7.248;2023-02-19T10:43:28;101653.00;;;7.98;96.92
51359;BME280;37448;51.588;7.248;2023-02-19T10:45:38;101659.91;;;7.94;96.66
51359;BME280;37448;51.588;7.248;2023-02-19T10:47:45;101662.53;;;7.96;96.76
51359;BME280;37448;51.588;7.248;2023-02-19T10:49:47;101672.06;;;7.95;96.58
51359;BME280;37448;51.588;7.248;2023-02-19T10:51:51;101676.41;;;7.99;97.61
51359;BME280;37448;51.588;7.248;2023-02-19T10:54:48;101678.19;;;8.05;97.01
51359;BME280;37448;51.588;7.248;2023-02-19T10:56:25;101700.78;;;8.14;96.75
51359;BME280;37448;51.588;7.248;2023-02-19T10:58:26;101686.06;;;8.19;96.82
51359;BME280;37448;51.588;7.248;2023-02-19T11:00:28;101686.06;;;8.25;96.70
51359;BME280;37448;51.588;7.248;2023-02-19T11:02:30;101687.84;;;8.31;97.05
51359;BME280;37448;51.588;7.248;2023-02-19T11:04:32;101682.69;;;8.36;96.37
51359;BME280;37448;51.588;7.248;2023-02-19T11:06:34;101676.59;;;8.35;94.79
51359;BME280;37448;51.588;7.248;2023-02-19T11:08:48;101687.00;;;8.38;95.18
51359;BME280;37448;51.588;7.248;2023-02-19T11:10:49;101690.47;;;8.36;95.41
51359;BME280;37448;51.588;7.248;2023-02-19T11:12:51;101688.72;;;8.36;95.30